Time;durP1;ratioP1;P1;durP2;ratioP2;P2;SDS_P1;SDS_P2;PMS_P1;PMS_P2;Temp;Humidity;BMP_temperature;BMP_pressure;BME280_temperature;BME280_humidity;BME280_pressure;Samples;Min_cycle;Max_cycle;Signal;HPM_P1;HPM_P2
2022/03/28 00:02:27;;;;;;;158.40;73.22;;;;;;;2.04;51.87;101315.13;2063064;84;29957;-67
2022/03/28 00:05:29;;;;;;;143.68;70.42;;;;;;;2.00;51.89;101314.25;2055071;85;27648;-67
2022/03/28 00:08:31;;;;;;;158.03;71.12;;;;;;;1.96;52.10;101312.05;2073884;85;29602;-68
2022/03/28 00:11:34;;;;;;;157.85;70.03;;;;;;;1.95;52.20;101314.66;2067537;85;31818;-67
2022/03/28 00:14:35;;;;;;;153.35;73.37;;;;;;;1.93;52.31;101317.73;2068316;85;32989;-67
2022/03/28 00:17:38;;;;;;;157.78;69.53;;;;;;;1.92;52.36;101310.27;2054431;85;29313;-67
2022/03/28 00:20:40;;;;;;;152.72;72.45;;;;;;;1.88;52.58;101315.09;2041767;85;27745;-67
2022/03/28 00:23:42;;;;;;;149.97;70.60;;;;;;;1.86;52.77;101314.20;2074584;85;28682;-67
2022/03/28 00:26:47;;;;;;;151.32;71.50;;;;;;;1.83;52.85;101314.19;2099488;84;30858;-68
2022/03/28 00:29:48;;;;;;;145.45;68.92;;;;;;;1.81;52.92;101306.27;2056259;85;34010;-67
2022/03/28 00:32:50;;;;;;;165.75;74.87;;;;;;;1.78;53.02;101298.78;2087530;84;28896;-68
2022/03/28 00:35:52;;;;;;;161.68;69.60;;;;;;;1.75;52.99;101298.31;2100478;84;27774;-67
2022/03/28 00:38:54;;;;;;;158.63;73.90;;;;;;;1.73;53.01;101298.78;2037055;85;29469;-64
2022/03/28 00:41:56;;;;;;;157.60;69.72;;;;;;;1.71;53.07;101287.73;2029443;87;31069;-67
2022/03/28 00:44:58;;;;;;;160.40;72.47;;;;;;;1.68;53.17;101280.70;2098349;84;33771;-67
2022/03/28 00:48:01;;;;;;;151.97;70.72;;;;;;;1.67;53.36;101276.30;2092798;85;29109;-68
2022/03/28 00:51:03;;;;;;;155.67;68.85;;;;;;;1.64;53.41;101273.22;2097846;84;27708;-68
2022/03/28 00:54:06;;;;;;;157.70;69.30;;;;;;;1.62;53.40;101273.64;2109779;83;28770;-67
2022/03/28 00:57:08;;;;;;;145.77;65.57;;;;;;;1.59;53.49;101276.27;2133704;83;31040;-67
2022/03/28 01:00:11;;;;;;;144.30;66.87;;;;;;;1.59;53.64;101273.63;2132922;83;33173;-68
2022/03/28 01:03:13;;;;;;;146.25;67.65;;;;;;;1.56;53.77;101268.33;2099875;84;29334;-67
2022/03/28 01:06:16;;;;;;;141.65;67.03;;;;;;;1.56;53.88;101263.05;2098894;84;27620;-67
2022/03/28 01:09:19;;;;;;;146.00;65.85;;;;;;;1.54;54.06;101261.30;2098920;84;29508;-67
2022/03/28 01:12:25;;;;;;;136.28;61.50;;;;;;;1.53;54.17;101256.43;2089162;84;32027;-67
2022/03/28 01:15:27;;;;;;;145.90;67.17;;;;;;;1.50;54.21;101248.08;2100282;84;32140;-67
2022/03/28 01:18:29;;;;;;;141.75;66.20;;;;;;;1.49;54.32;101247.63;2099701;84;29340;-67
2022/03/28 01:21:31;;;;;;;140.07;65.20;;;;;;;1.46;54.45;101246.74;2100434;84;27644;-67
2022/03/28 01:24:33;;;;;;;149.82;62.90;;;;;;;1.44;54.40;101249.36;2100062;84;29873;-67
2022/03/28 01:27:36;;;;;;;143.13;66.77;;;;;;;1.41;54.44;101239.23;2097679;84;31249;-67
2022/03/28 01:30:38;;;;;;;143.25;62.43;;;;;;;1.39;54.41;101239.66;2100079;84;33813;-68
2022/03/28 01:33:39;;;;;;;137.92;65.78;;;;;;;1.36;54.52;101242.73;2106208;83;30730;-68
2022/03/28 01:36:44;;;;;;;126.67;59.85;;;;;;;1.35;54.68;101237.01;2120213;83;27605;-68
2022/03/28 01:39:45;;;;;;;134.67;62.62;;;;;;;1.33;54.72;101236.57;2094199;85;28647;-68
2022/03/28 01:42:49;;;;;;;135.20;57.83;;;;;;;1.31;54.77;101226.02;2075250;85;32192;-69
2022/03/28 01:45:51;;;;;;;131.67;60.78;;;;;;;1.28;54.81;101222.05;2038859;87;34187;-67
2022/03/28 01:48:53;;;;;;;140.85;60.58;;;;;;;1.27;54.81;101223.34;2093529;84;29438;-67
2022/03/28 01:51:55;;;;;;;135.85;62.35;;;;;;;1.24;54.82;101217.62;2087111;84;28041;-67
2022/03/28 01:54:58;;;;;;;137.47;60.03;;;;;;;1.23;55.11;101210.58;2068304;85;29602;-67
2022/03/28 01:58:00;;;;;;;140.77;59.20;;;;;;;1.23;55.23;101211.89;2042730;87;31630;-67
2022/03/28 02:01:02;;;;;;;127.17;57.15;;;;;;;1.21;55.24;101211.91;2073438;85;33728;-68
2022/03/28 02:04:05;;;;;;;123.02;56.30;;;;;;;1.21;55.30;101209.68;2071284;83;29311;-67
2022/03/28 02:07:07;;;;;;;126.50;58.40;;;;;;;1.19;55.38;101204.41;2040456;86;27727;-67
2022/03/28 02:10:10;;;;;;;127.35;57.50;;;;;;;1.17;55.54;101204.84;2063544;85;28682;-67
2022/03/28 02:13:12;;;;;;;122.28;53.58;;;;;;;1.17;55.54;101203.52;2071818;85;31075;-67
2022/03/28 02:16:14;;;;;;;121.25;56.45;;;;;;;1.15;55.47;101194.71;2039057;87;33028;-67
2022/03/28 02:19:16;;;;;;;121.77;53.15;;;;;;;1.14;55.79;101190.30;2060057;86;29373;-68
2022/03/28 02:22:18;;;;;;;112.70;53.63;;;;;;;1.13;56.08;101183.72;2088203;84;27688;-67
2022/03/28 02:25:20;;;;;;;118.85;51.63;;;;;;;1.13;56.04;101172.70;2038942;86;28708;-67
2022/03/28 02:28:21;;;;;;;111.72;54.23;;;;;;;1.11;56.12;101170.95;2041644;85;31849;-67
2022/03/28 02:31:23;;;;;;;121.55;52.40;;;;;;;1.11;56.23;101168.31;2074052;85;33905;-67
2022/03/28 02:34:25;;;;;;;114.50;52.20;;;;;;;1.09;56.36;101168.28;2038386;85;29329;-67
2022/03/28 02:37:27;;;;;;;111.92;49.70;;;;;;;1.08;56.24;101173.13;2054630;85;27636;-65
2022/03/28 02:40:30;;;;;;;113.72;50.67;;;;;;;1.06;56.40;101161.25;2073750;85;29259;-65
2022/03/28 02:43:32;;;;;;;107.07;49.58;;;;;;;1.06;56.33;101149.83;2050077;85;31857;-67
2022/03/28 02:46:34;;;;;;;108.75;52.75;;;;;;;1.03;56.42;101147.17;2053853;86;32975;-68
2022/03/28 02:49:35;;;;;;;112.47;51.85;;;;;;;1.02;56.41;101149.37;2114440;83;29854;-68
2022/03/28 02:52:37;;;;;;;108.22;51.08;;;;;;;1.01;56.45;101144.97;2096825;84;27801;-67
2022/03/28 02:55:39;;;;;;;118.93;52.35;;;;;;;0.99;56.41;101138.80;2092473;85;28711;-67
2022/03/28 02:58:40;;;;;;;112.83;50.95;;;;;;;0.96;56.49;101150.23;2097307;84;31018;-67
2022/03/28 03:01:44;;;;;;;124.62;53.35;;;;;;;0.96;56.52;101140.10;2079939;84;33715;-67
2022/03/28 03:04:46;;;;;;;126.82;55.52;;;;;;;0.92;56.79;101136.58;2096736;84;29364;-66
2022/03/28 03:07:49;;;;;;;112.60;50.05;;;;;;;0.91;56.77;101143.59;2091607;85;27655;-67
2022/03/28 03:10:51;;;;;;;118.77;56.53;;;;;;;0.88;56.83;101143.61;2091764;85;28707;-67
2022/03/28 03:13:56;;;;;;;119.80;51.77;;;;;;;0.87;56.97;101140.53;2093023;84;31388;-67
2022/03/28 03:16:56;;;;;;;118.90;54.25;;;;;;;0.83;57.02;101144.02;2091926;84;33030;-67
2022/03/28 03:19:58;;;;;;;112.32;51.30;;;;;;;0.82;57.13;101143.57;2092350;85;29478;-67
2022/03/28 03:23:01;;;;;;;110.72;53.33;;;;;;;0.80;57.08;101145.31;2107829;83;27740;-66
2022/03/28 03:26:03;;;;;;;102.95;49.08;;;;;;;0.80;57.17;101149.73;2097341;84;29470;-67
2022/03/28 03:29:05;;;;;;;119.10;55.55;;;;;;;0.78;57.28;101149.70;2087140;85;31961;-68
2022/03/28 03:32:08;;;;;;;115.32;53.10;;;;;;;0.79;57.58;101147.96;2088131;85;32985;-67
2022/03/28 03:35:10;;;;;;;114.03;54.65;;;;;;;0.78;57.56;101147.52;2100879;84;29993;-67
2022/03/28 03:38:12;;;;;;;112.40;51.42;;;;;;;0.78;57.56;101152.80;2094348;84;27731;-67
2022/03/28 03:41:14;;;;;;;117.85;55.00;;;;;;;0.77;57.63;101150.58;2094402;84;28893;-67
2022/03/28 03:44:16;;;;;;;119.45;54.53;;;;;;;0.78;57.55;101146.20;2068995;84;32279;-66
2022/03/28 03:47:17;;;;;;;111.25;53.08;;;;;;;0.76;57.59;101143.53;2041447;87;33102;-66
2022/03/28 03:50:19;;;;;;;114.08;50.80;;;;;;;0.75;57.62;101142.67;2068068;86;30089;-67
2022/03/28 03:53:21;;;;;;;117.90;55.17;;;;;;;0.73;57.65;101144.87;2076931;84;27721;-67
2022/03/28 03:56:23;;;;;;;113.20;52.67;;;;;;;0.72;57.73;101137.38;2029763;87;29955;-66
2022/03/28 03:59:25;;;;;;;114.60;52.10;;;;;;;0.72;57.86;101141.78;2092623;85;33215;-65
2022/03/28 04:02:27;;;;;;;154.90;62.17;;;;;;;0.71;57.98;101136.06;2081972;84;33915;-66
2022/03/28 04:05:29;;;;;;;165.12;69.95;;;;;;;0.70;58.11;101133.84;2038108;87;29359;-66
2022/03/28 04:08:31;;;;;;;180.57;71.17;;;;;;;0.69;58.10;101124.63;2030326;87;27719;-67
2022/03/28 04:11:33;;;;;;;175.97;73.70;;;;;;;0.68;58.18;101124.17;2010026;88;29294;-66
2022/03/28 04:14:35;;;;;;;159.67;69.97;;;;;;;0.65;58.18;101121.09;2064142;85;31486;-66
2022/03/28 04:17:43;;;;;;;154.78;63.92;;;;;;;0.62;58.23;101122.81;2103965;83;33350;-66
2022/03/28 04:20:45;;;;;;;156.55;64.10;;;;;;;0.63;58.17;101118.89;2048227;85;29564;-66
2022/03/28 04:23:46;;;;;;;158.05;68.87;;;;;;;0.62;58.36;101118.44;2101643;84;27722;-66
2022/03/28 04:26:48;;;;;;;172.32;69.30;;;;;;;0.60;58.44;101115.78;2069990;85;29297;-66
2022/03/28 04:29:50;;;;;;;174.77;74.12;;;;;;;0.61;58.41;101121.95;2041878;87;32358;-66
2022/03/28 04:32:52;;;;;;;169.47;71.72;;;;;;;0.61;58.41;101119.31;2098808;84;32854;-66
2022/03/28 04:35:53;;;;;;;163.77;70.78;;;;;;;0.61;58.48;101119.31;2092533;85;29853;-66
2022/03/28 04:38:55;;;;;;;167.87;68.05;;;;;;;0.62;58.49;101121.50;2088478;84;27608;-66
2022/03/28 04:41:57;;;;;;;174.23;73.05;;;;;;;0.62;58.58;101118.44;2079381;84;29927;-66
2022/03/28 04:44:59;;;;;;;163.75;69.65;;;;;;;0.66;58.74;101123.28;2030621;87;32374;-66
2022/03/28 04:48:02;;;;;;;165.50;70.47;;;;;;;0.67;58.84;101119.77;2029119;87;33843;-66
2022/03/28 04:51:04;;;;;;;168.25;70.12;;;;;;;0.70;58.73;101119.80;2043651;87;29403;-66
2022/03/28 04:54:06;;;;;;;172.43;73.40;;;;;;;0.72;58.79;101124.64;2033382;85;27681;-65
2022/03/28 04:57:08;;;;;;;168.17;69.20;;;;;;;0.75;58.98;101123.31;2031068;87;29969;-67
2022/03/28 05:00:12;;;;;;;171.95;71.87;;;;;;;0.80;59.01;101118.08;2031888;87;32341;-67
2022/03/28 05:03:14;;;;;;;170.85;70.78;;;;;;;0.86;59.14;101118.08;2032247;87;33836;-67
2022/03/28 05:06:16;;;;;;;167.50;72.82;;;;;;;0.90;59.19;101113.27;2040251;86;30038;-66
2022/03/28 05:09:18;;;;;;;153.05;65.72;;;;;;;0.96;59.25;101109.34;2032228;87;27744;-67
2022/03/28 05:12:25;;;;;;;151.65;63.60;;;;;;;1.02;59.36;101108.02;2031362;87;29645;-68
2022/03/28 05:15:27;;;;;;;140.12;61.20;;;;;;;1.10;59.41;101102.77;2031003;87;31201;-66
2022/03/28 05:18:29;;;;;;;145.32;62.60;;;;;;;1.16;59.48;101104.11;2032256;87;32764;-66
2022/03/28 05:21:31;;;;;;;137.20;59.10;;;;;;;1.25;59.52;101099.28;2015575;87;30482;-66
2022/03/28 05:24:33;;;;;;;126.58;57.75;;;;;;;1.33;59.57;101092.24;1997661;89;27739;-66
2022/03/28 05:27:45;;;;;;;130.05;55.12;;;;;;;1.43;59.56;101090.95;2023978;87;29931;-66
2022/03/28 05:30:48;;;;;;;121.30;55.28;;;;;;;1.51;59.61;101088.76;2031205;87;31100;-66
2022/03/28 05:33:50;;;;;;;130.30;57.25;;;;;;;1.61;59.71;101083.47;2032030;87;32753;-66
2022/03/28 05:36:52;;;;;;;113.55;54.40;;;;;;;1.72;59.87;101087.44;2031774;87;29280;-66
2022/03/28 05:39:54;;;;;;;125.22;54.85;;;;;;;1.84;60.01;101085.23;2032119;87;27728;-66
2022/03/28 05:42:57;;;;;;;114.90;48.33;;;;;;;1.95;60.04;101081.70;2032303;87;29064;-65
2022/03/28 05:45:59;;;;;;;99.37;42.17;;;;;;;2.09;60.18;101083.44;2031604;87;32409;-66
2022/03/28 05:49:01;;;;;;;109.70;46.83;;;;;;;2.23;60.24;101072.38;2030923;87;33748;-68
2022/03/28 05:52:04;;;;;;;107.15;46.58;;;;;;;2.41;60.24;101075.40;2031424;87;30515;-66
2022/03/28 05:55:08;;;;;;;109.75;48.58;;;;;;;2.61;60.29;101069.62;2046854;86;27634;-66
2022/03/28 05:58:11;;;;;;;112.68;48.70;;;;;;;2.83;60.38;101066.42;2030222;87;28682;-66
2022/03/28 06:01:13;;;;;;;92.12;45.65;;;;;;;3.07;60.49;101065.41;2017064;87;32392;-66
2022/03/28 06:04:15;;;;;;;93.90;44.15;;;;;;;3.30;60.57;101064.38;2000090;87;34209;-66
2022/03/28 06:07:17;;;;;;;90.85;41.42;;;;;;;3.54;60.61;101055.80;2029768;87;30733;-66
2022/03/28 06:10:19;;;;;;;79.70;41.25;;;;;;;3.78;60.42;101055.59;2029609;87;27660;-66
2022/03/28 06:13:22;;;;;;;89.03;38.98;;;;;;;4.06;60.25;101052.66;2028882;87;29915;-66
2022/03/28 06:16:25;;;;;;;77.10;37.08;;;;;;;4.41;60.20;101047.84;2029736;87;32354;-66
2022/03/28 06:19:27;;;;;;;80.03;36.00;;;;;;;4.88;59.82;101041.49;2029999;87;32998;-66
2022/03/28 06:22:29;;;;;;;74.62;35.80;;;;;;;5.48;59.44;101033.94;2002795;87;30840;-66
2022/03/28 06:25:31;;;;;;;67.08;34.67;;;;;;;6.14;58.80;101034.14;2027760;86;27720;-66
2022/03/28 06:28:33;;;;;;;70.03;35.30;;;;;;;6.80;58.48;101026.57;2060550;86;29540;-66
2022/03/28 06:31:35;;;;;;;70.97;32.95;;;;;;;7.47;57.78;101022.33;2085116;85;31187;-66
2022/03/28 06:34:37;;;;;;;71.62;32.95;;;;;;;8.08;57.01;101017.17;2060363;84;34210;-67
2022/03/28 06:37:39;;;;;;;55.38;31.33;;;;;;;8.71;56.32;101006.48;2056218;85;30896;-66
2022/03/28 06:40:42;;;;;;;66.55;29.75;;;;;;;9.27;55.64;101004.75;2055322;85;27720;-65
2022/03/28 06:43:44;;;;;;;59.08;29.27;;;;;;;9.83;55.10;101001.06;2050491;86;28751;-65
2022/03/28 06:46:46;;;;;;;58.30;28.12;;;;;;;10.43;54.44;100981.95;2054774;86;33123;-66
2022/03/28 06:49:48;;;;;;;54.53;27.30;;;;;;;11.07;53.87;100980.83;2053109;86;33001;-66
2022/03/28 06:52:51;;;;;;;52.93;28.20;;;;;;;11.68;53.11;100987.22;2060388;84;30435;-65
2022/03/28 06:55:53;;;;;;;50.35;26.90;;;;;;;12.23;52.28;100978.59;2080374;84;27556;-65
2022/03/28 06:58:55;;;;;;;54.50;28.42;;;;;;;12.75;51.59;100974.38;2087002;84;29951;-67
2022/03/28 07:01:57;;;;;;;57.13;30.68;;;;;;;13.29;51.17;100978.48;2098676;84;31107;-65
2022/03/28 07:05:00;;;;;;;52.17;28.85;;;;;;;13.80;50.56;100970.52;2109125;83;34095;-65
2022/03/28 07:08:03;;;;;;;45.92;23.95;;;;;;;14.28;49.84;100963.95;2133385;83;30847;-66
2022/03/28 07:11:06;;;;;;;41.60;19.45;;;;;;;14.78;49.26;100961.25;2100296;83;27757;-65
2022/03/28 07:14:08;;;;;;;30.60;18.17;;;;;;;15.27;48.02;100958.87;2094265;84;29881;-66
2022/03/28 07:17:11;;;;;;;29.45;17.40;;;;;;;15.71;47.92;100950.42;2098772;84;32400;-65
2022/03/28 07:20:13;;;;;;;32.03;16.20;;;;;;;16.19;47.09;100944.81;2099891;84;34371;-65
2022/03/28 07:23:15;;;;;;;23.75;15.30;;;;;;;16.45;46.15;100921.14;2092650;84;30412;-65
2022/03/28 07:26:18;;;;;;;21.73;12.53;;;;;;;16.85;44.92;100934.28;2093451;84;28438;-65
2022/03/28 07:29:21;;;;;;;16.67;11.70;;;;;;;17.10;45.18;100921.84;2096837;84;29625;-66
2022/03/28 07:32:24;;;;;;;16.65;10.82;;;;;;;17.47;44.40;100923.88;2097778;84;31193;-66
2022/03/28 07:35:27;;;;;;;16.65;10.35;;;;;;;17.92;44.20;100937.04;2100414;84;32970;-66
2022/03/28 07:38:29;;;;;;;15.10;10.75;;;;;;;18.21;43.50;100929.58;2098464;84;29790;-66
2022/03/28 07:41:31;;;;;;;20.48;11.20;;;;;;;18.56;43.08;100923.06;2113184;83;27715;-67
2022/03/28 07:44:35;;;;;;;16.42;11.25;;;;;;;18.92;42.44;100922.67;2127457;83;30071;-66
2022/03/28 07:47:38;;;;;;;15.18;10.65;;;;;;;19.14;41.44;100926.02;2127244;83;31852;-66
2022/03/28 07:50:40;;;;;;;16.93;10.58;;;;;;;19.33;41.26;100921.39;2119949;83;33669;-66
2022/03/28 07:53:42;;;;;;;20.12;10.25;;;;;;;19.55;40.98;100911.58;2084635;84;29674;-66
2022/03/28 07:56:45;;;;;;;14.83;10.55;;;;;;;19.78;40.38;100909.77;2055420;85;27698;-67
2022/03/28 07:59:49;;;;;;;13.88;10.00;;;;;;;20.00;39.87;100905.39;2027268;87;28727;-66
2022/03/28 08:02:51;;;;;;;14.67;10.57;;;;;;;20.22;39.55;100903.64;2055677;86;31089;-67
2022/03/28 08:05:54;;;;;;;15.45;10.70;;;;;;;20.41;39.42;100897.08;2053068;86;33057;-67
2022/03/28 08:08:56;;;;;;;17.35;9.95;;;;;;;20.60;38.69;100890.12;2028688;87;30473;-67
2022/03/28 08:11:59;;;;;;;14.10;10.25;;;;;;;20.63;38.56;100879.83;2032441;87;27763;-68
2022/03/28 08:15:02;;;;;;;13.70;9.45;;;;;;;20.79;38.26;100873.13;2053918;86;28655;-67
2022/03/28 08:18:06;;;;;;;14.93;9.28;;;;;;;20.91;37.99;100867.16;2053492;86;31710;-67
2022/03/28 08:21:09;;;;;;;19.73;9.48;;;;;;;21.01;37.73;100869.48;2062731;85;33206;-66
2022/03/28 08:24:12;;;;;;;13.35;9.83;;;;;;;21.13;37.33;100860.74;2082016;85;30380;-67
2022/03/28 08:27:15;;;;;;;15.90;9.25;;;;;;;21.21;36.90;100852.79;2053612;86;27580;-67
2022/03/28 08:30:19;;;;;;;12.13;9.03;;;;;;;21.15;36.83;100853.82;2052580;86;28703;-67
2022/03/28 08:33:22;;;;;;;14.38;9.43;;;;;;;21.22;36.66;100850.44;1986716;89;31128;-66
2022/03/28 08:36:25;;;;;;;14.93;9.03;;;;;;;21.31;36.91;100846.53;2000311;87;34310;-68
2022/03/28 08:39:27;;;;;;;12.40;10.35;;;;;;;21.30;36.64;100844.80;2027622;87;30342;-65
2022/03/28 08:42:32;;;;;;;10.55;9.45;;;;;;;21.14;36.35;100839.31;2029104;87;27859;-66
2022/03/28 08:45:41;;;;;;;13.65;9.43;;;;;;;20.93;36.18;100837.94;2029925;87;30602;-66
2022/03/28 08:48:44;;;;;;;12.35;9.83;;;;;;;20.59;35.82;100833.46;2029469;87;30989;-66
2022/03/28 08:51:47;;;;;;;18.82;9.75;;;;;;;20.26;36.42;100833.03;2030119;87;33888;-65
2022/03/28 08:54:51;;;;;;;13.13;9.43;;;;;;;20.07;36.73;100830.45;2030886;87;30830;-66
2022/03/28 08:57:53;;;;;;;10.55;9.08;;;;;;;19.96;36.76;100829.96;2032027;87;27716;-65
2022/03/28 09:00:55;;;;;;;11.12;9.68;;;;;;;19.78;36.67;100821.41;2032303;87;29051;-65
2022/03/28 09:04:07;;;;;;;11.88;10.15;;;;;;;19.66;36.65;100821.05;2031929;87;32292;-66
2022/03/28 09:07:09;;;;;;;11.65;9.40;;;;;;;19.53;36.66;100813.84;2029772;87;32972;-66
2022/03/28 09:10:17;;;;;;;16.85;10.13;;;;;;;19.44;36.88;100807.28;2030652;87;30316;-66
2022/03/28 09:13:20;;;;;;;13.08;9.60;;;;;;;19.38;36.72;100813.70;2016482;87;27805;-66
2022/03/28 09:16:21;;;;;;;11.68;8.75;;;;;;;19.32;37.00;100797.40;2018526;88;28667;-66
2022/03/28 09:19:24;;;;;;;11.68;8.83;;;;;;;19.33;36.99;100794.20;2018271;88;32237;-66
2022/03/28 09:22:30;;;;;;;11.38;8.63;;;;;;;19.37;37.02;100793.83;2049983;86;33990;-66
2022/03/28 09:25:38;;;;;;;15.90;9.60;;;;;;;19.41;36.91;100788.53;2061363;85;31008;-66
2022/03/28 09:28:47;;;;;;;13.25;8.75;;;;;;;19.40;36.78;100799.51;2056255;85;27821;-65
2022/03/28 09:31:50;;;;;;;12.25;9.33;;;;;;;19.35;36.71;100792.23;2056288;86;28770;-66
2022/03/28 09:35:12;;;;;;;11.12;8.83;;;;;;;19.39;36.84;100787.79;2060803;86;32166;-67
2022/03/28 09:38:18;;;;;;;13.22;9.70;;;;;;;19.41;36.59;100780.38;2050920;85;33741;-67
2022/03/28 09:41:17;;;;;;;11.47;9.63;;;;;;;19.28;36.25;100772.33;2072329;85;30454;-67
2022/03/28 09:44:39;;;;;;;11.15;9.03;;;;;;;19.18;36.24;100774.53;2088315;85;28406;-67
2022/03/28 09:47:55;;;;;;;14.05;8.23;;;;;;;19.08;36.41;100768.48;2052371;86;29974;-65
2022/03/28 09:51:04;;;;;;;12.05;8.55;;;;;;;19.01;36.30;100766.36;2059640;86;31097;-68
2022/03/28 09:54:12;;;;;;;11.10;9.00;;;;;;;18.94;36.19;100761.40;2036890;86;33002;-67
2022/03/28 09:57:20;;;;;;;19.35;9.83;;;;;;;18.89;36.33;100762.20;2001815;87;29685;-66
2022/03/28 10:00:24;;;;;;;12.35;9.05;;;;;;;18.91;36.86;100756.67;2042496;85;27692;-66
2022/03/28 10:03:34;;;;;;;13.48;10.00;;;;;;;18.96;36.56;100747.22;2074943;85;28739;-66
2022/03/28 10:06:38;;;;;;;14.30;10.25;;;;;;;18.97;36.54;100743.52;2074504;85;32365;-66
2022/03/28 10:09:41;;;;;;;13.20;9.48;;;;;;;18.94;36.61;100735.61;2062300;85;32967;-66
2022/03/28 10:12:43;;;;;;;12.85;9.53;;;;;;;18.94;36.24;100730.17;2074942;85;30793;-66
2022/03/28 10:15:46;;;;;;;11.60;8.98;;;;;;;18.96;36.17;100723.25;2074550;85;27732;-66
2022/03/28 10:18:50;;;;;;;13.55;9.93;;;;;;;18.96;36.41;100720.54;2100065;84;29873;-67
2022/03/28 10:21:52;;;;;;;13.38;9.88;;;;;;;18.94;36.24;100709.81;2086884;84;35946;-66
2022/03/28 10:24:59;;;;;;;19.75;10.25;;;;;;;18.93;36.28;100706.69;2069868;85;33169;-66
2022/03/28 10:28:01;;;;;;;14.87;10.60;;;;;;;18.95;36.07;100714.26;2030791;87;29632;-66
2022/03/28 10:31:16;;;;;;;16.10;9.30;;;;;;;18.90;35.95;100704.20;2044385;87;27827;-66
2022/03/28 10:34:39;;;;;;;;;;;;;;;18.85;35.88;100707.80;2047414;87;29297;-66
2022/03/28 10:37:52;;;;;;;12.45;9.43;;;;;;;18.82;36.41;100702.09;2084457;84;32383;-66
2022/03/28 10:41:07;;;;;;;13.05;10.85;;;;;;;18.86;36.28;100691.89;2099314;84;34200;-67
2022/03/28 10:44:09;;;;;;;15.00;10.38;;;;;;;18.89;36.20;100690.77;2099063;84;30868;-66
2022/03/28 10:47:14;;;;;;;16.73;8.65;;;;;;;18.91;36.05;100685.58;2095888;84;27714;-66
2022/03/28 10:50:32;;;;;;;9.83;8.25;;;;;;;18.89;35.75;100671.26;2100881;84;28705;-65
2022/03/28 10:53:41;;;;;;;9.95;7.62;;;;;;;18.89;35.74;100669.90;2112756;83;32268;-66
2022/03/28 10:56:48;;;;;;;11.43;8.40;;;;;;;18.91;35.73;100659.79;2085630;83;33893;-66
2022/03/28 11:00:09;;;;;;;12.07;8.00;;;;;;;18.96;35.52;100652.66;2100229;84;29718;-68
2022/03/28 11:03:16;;;;;;;13.18;10.10;;;;;;;18.96;35.46;100647.23;2043050;87;27714;-65
2022/03/28 11:06:23;;;;;;;12.30;8.40;;;;;;;18.99;35.58;100644.28;2029728;87;29816;-66
2022/03/28 11:09:56;;;;;;;11.35;7.83;;;;;;;18.99;35.45;100638.84;2091873;84;32280;-66
2022/03/28 11:13:16;;;;;;;13.65;8.50;;;;;;;19.00;35.56;100631.08;2089484;84;34085;-66
2022/03/28 11:16:20;;;;;;;13.03;8.80;;;;;;;19.03;35.23;100624.55;2083698;84;30493;-66
2022/03/28 11:19:33;;;;;;;11.77;6.40;;;;;;;19.01;35.14;100614.30;2094718;84;27743;-67
2022/03/28 11:23:08;;;;;;;9.70;7.72;;;;;;;19.00;35.19;100612.06;2124283;83;28607;-66
2022/03/28 11:26:10;;;;;;;11.60;8.17;;;;;;;19.03;35.35;100607.75;2086168;84;31949;-67
2022/03/28 11:29:13;;;;;;;10.93;8.75;;;;;;;19.05;35.05;100604.42;2075782;85;33805;-66
2022/03/28 11:32:18;;;;;;;13.40;7.70;;;;;;;19.07;35.25;100592.06;2074537;85;29631;-66
2022/03/28 11:35:21;;;;;;;12.25;8.10;;;;;;;19.11;35.26;100589.48;2075083;85;27716;-66
2022/03/28 11:38:32;;;;;;;11.15;8.43;;;;;;;19.13;35.16;100577.49;2076320;84;30000;-66
2022/03/28 11:41:35;;;;;;;12.73;8.15;;;;;;;19.13;35.41;100574.78;2077124;85;31696;-66
2022/03/28 11:44:37;;;;;;;46.88;9.85;;;;;;;19.13;35.10;100560.35;2076623;85;34197;-66
2022/03/28 11:47:42;;;;;;;13.13;7.45;;;;;;;19.13;35.29;100563.06;2040001;87;30767;-66
2022/03/28 11:50:46;;;;;;;14.63;8.90;;;;;;;19.11;35.05;100557.73;2099692;84;27734;-66
2022/03/28 11:53:49;;;;;;;13.53;8.37;;;;;;;19.08;35.18;100558.02;2100670;84;29719;-66
2022/03/28 12:00:15;;;;;;;11.90;8.15;;;;;;;19.09;35.09;100538.02;2051499;85;34199;-67
2022/03/28 12:03:17;;;;;;;14.23;7.95;;;;;;;19.11;35.20;100536.02;2085762;85;29644;-66
2022/03/28 12:06:40;;;;;;;10.18;7.25;;;;;;;19.17;35.23;100531.95;2066848;85;27795;-66
2022/03/28 12:09:43;;;;;;;14.58;8.33;;;;;;;19.19;35.26;100527.75;2056202;85;29897;-66
2022/03/28 12:12:45;;;;;;;11.08;7.08;;;;;;;19.20;34.81;100518.61;2054837;86;31769;-66
2022/03/28 12:15:53;;;;;;;11.45;7.28;;;;;;;19.19;34.65;100510.09;2044691;86;33835;-66
2022/03/28 12:18:58;;;;;;;13.83;7.10;;;;;;;19.17;34.90;100502.08;2051536;85;29645;-66
2022/03/28 12:22:04;;;;;;;12.45;7.95;;;;;;;19.20;34.98;100494.16;2051071;86;27745;-66
2022/03/28 12:25:08;;;;;;;11.88;7.70;;;;;;;19.21;34.68;100477.73;2051554;86;28655;-66
2022/03/28 12:28:16;;;;;;;11.18;7.12;;;;;;;19.21;34.60;100480.44;2056407;86;31059;-66
2022/03/28 12:31:19;;;;;;;13.08;7.87;;;;;;;19.18;34.65;100467.63;2051955;86;33858;-66
2022/03/28 12:34:21;;;;;;;13.00;8.23;;;;;;;19.19;34.68;100456.66;2041366;85;30016;-66
2022/03/28 12:37:27;;;;;;;14.30;7.45;;;;;;;19.20;34.63;100453.42;2025296;86;27771;-66
2022/03/28 12:40:31;;;;;;;7.78;6.87;;;;;;;19.19;34.65;100451.22;2051443;85;28884;-66
2022/03/28 12:43:33;;;;;;;18.07;8.07;;;;;;;19.19;34.67;100447.14;1988836;87;30481;-66
2022/03/28 12:46:36;;;;;;;13.80;8.40;;;;;;;19.17;34.61;100434.19;2032556;87;33774;-67
2022/03/28 12:49:43;;;;;;;10.65;6.35;;;;;;;19.18;34.67;100429.60;2032471;87;30451;-66
2022/03/28 12:52:45;;;;;;;10.45;6.47;;;;;;;19.19;34.40;100424.06;2014034;87;27698;-66
2022/03/28 12:55:47;;;;;;;9.55;5.92;;;;;;;19.20;33.95;100418.97;2034321;87;28626;-66
2022/03/28 12:59:02;;;;;;;11.85;7.30;;;;;;;19.20;34.10;100409.46;2040704;87;31763;-66
2022/03/28 13:02:18;;;;;;;;;;;;;;;19.22;34.18;100412.06;2067139;85;33755;-66
2022/03/28 13:05:16;;;;;;;12.63;7.10;;;;;;;19.22;34.09;100404.77;2079770;83;30036;-66
2022/03/28 13:08:18;;;;;;;8.85;6.05;;;;;;;19.23;34.21;100390.19;2097402;84;27727;-67
2022/03/28 13:11:21;;;;;;;11.08;7.20;;;;;;;19.25;34.06;100386.01;2050040;86;29423;-66
2022/03/28 13:14:29;;;;;;;15.72;7.05;;;;;;;19.25;33.92;100380.58;2062238;85;30477;-66
2022/03/28 13:17:32;;;;;;;8.20;5.85;;;;;;;19.25;33.90;100373.78;2075334;85;33003;-66
2022/03/28 13:20:35;;;;;;;9.83;5.80;;;;;;;19.24;33.53;100376.13;2099750;84;29777;-67
2022/03/28 13:23:38;;;;;;;11.83;6.22;;;;;;;19.21;33.62;100362.30;2088717;84;27817;-66
2022/03/28 13:26:47;;;;;;;12.20;6.58;;;;;;;19.18;33.28;100352.20;2063692;86;29916;-66
2022/03/28 13:29:48;;;;;;;8.23;5.08;;;;;;;19.15;33.44;100360.13;2084295;84;31095;-68
2022/03/28 13:32:51;;;;;;;8.68;5.45;;;;;;;19.12;33.19;100349.01;2090438;84;34186;-68
2022/03/28 13:35:54;;;;;;;6.42;4.75;;;;;;;19.11;33.19;100341.85;2064094;84;29718;-68
2022/03/28 13:38:56;;;;;;;5.67;4.45;;;;;;;19.11;33.34;100337.77;2129285;83;27690;-68
2022/03/28 13:41:59;;;;;;;7.22;4.58;;;;;;;19.11;32.90;100322.84;2112703;83;29121;-67
2022/03/28 13:45:01;;;;;;;7.42;4.90;;;;;;;19.13;32.57;100324.09;2099245;84;31832;-68
2022/03/28 13:48:10;;;;;;;6.97;5.28;;;;;;;19.10;32.50;100322.98;2100225;84;33138;-68
2022/03/28 13:51:12;;;;;;;8.23;5.33;;;;;;;19.10;32.75;100308.05;2065756;86;29656;-68
2022/03/28 13:54:14;;;;;;;12.80;6.28;;;;;;;19.13;32.96;100303.20;2089782;84;27671;-67
2022/03/28 13:57:15;;;;;;;11.45;5.75;;;;;;;19.15;32.76;100301.73;2063248;84;29876;-68
2022/03/28 14:00:17;;;;;;;9.00;7.00;;;;;;;19.16;32.66;100299.39;2027295;87;31149;-69
2022/03/28 14:03:19;;;;;;;10.03;6.35;;;;;;;19.15;32.93;100287.28;2050609;86;33817;-68
2022/03/28 14:06:22;;;;;;;14.20;8.08;;;;;;;19.16;32.98;100287.17;2052463;85;30009;-68